sensor_id;sensor_type;location;lat;lon;timestamp;P1;durP1;ratioP1;P2;durP2;ratioP2
28335;SDS011;15592;53.656;7.276;2024-02-21T00:00:48;27.23;;;8.30;;
28335;SDS011;15592;53.656;7.276;2024-02-21T00:03:14;25.35;;;7.57;;
28335;SDS011;15592;53.656;7.276;2024-02-21T00:05:40;24.05;;;7.47;;
28335;SDS011;15592;53.656;7.276;2024-02-21T00:08:06;17.67;;;6.65;;
28335;SDS011;15592;53.656;7.276;2024-02-21T00:10:32;25.10;;;7.80;;
28335;SDS011;15592;53.656;7.276;2024-02-21T00:12:58;22.45;;;7.28;;
28335;SDS011;15592;53.656;7.276;2024-02-21T00:15:24;20.33;;;6.82;;
28335;SDS011;15592;53.656;7.276;2024-02-21T00:17:50;24.58;;;6.60;;
28335;SDS011;15592;53.656;7.276;2024-02-21T00:20:16;18.98;;;6.13;;
28335;SDS011;15592;53.656;7.276;2024-02-21T00:22:43;27.17;;;6.50;;
28335;SDS011;15592;53.656;7.276;2024-02-21T00:25:09;25.52;;;6.80;;
28335;SDS011;15592;53.656;7.276;2024-02-21T00:27:35;24.30;;;5.55;;
28335;SDS011;15592;53.656;7.276;2024-02-21T00:30:01;15.32;;;5.68;;
28335;SDS011;15592;53.656;7.276;2024-02-21T00:32:27;18.67;;;5.95;;
28335;SDS011;15592;53.656;7.276;2024-02-21T00:34:53;26.33;;;6.90;;
28335;SDS011;15592;53.656;7.276;2024-02-21T00:37:19;16.00;;;5.50;;
28335;SDS011;15592;53.656;7.276;2024-02-21T00:39:45;21.52;;;6.28;;
28335;SDS011;15592;53.656;7.276;2024-02-21T00:42:11;22.08;;;7.18;;
28335;SDS011;15592;53.656;7.276;2024-02-21T00:44:37;24.38;;;6.35;;
28335;SDS011;15592;53.656;7.276;2024-02-21T00:47:03;17.35;;;6.72;;
28335;SDS011;15592;53.656;7.276;2024-02-21T00:49:29;27.35;;;6.88;;
28335;SDS011;15592;53.656;7.276;2024-02-21T00:51:55;19.10;;;6.50;;
28335;SDS011;15592;53.656;7.276;2024-02-21T00:54:21;24.50;;;7.10;;
28335;SDS011;15592;53.656;7.276;2024-02-21T00:56:48;26.42;;;6.63;;
28335;SDS011;15592;53.656;7.276;2024-02-21T00:59:14;23.35;;;6.10;;
28335;SDS011;15592;53.656;7.276;2024-02-21T01:01:40;25.45;;;6.68;;
28335;SDS011;15592;53.656;7.276;2024-02-21T01:04:09;26.10;;;7.25;;
28335;SDS011;15592;53.656;7.276;2024-02-21T01:06:35;21.17;;;6.47;;
28335;SDS011;15592;53.656;7.276;2024-02-21T01:09:01;24.75;;;6.55;;
28335;SDS011;15592;53.656;7.276;2024-02-21T01:11:27;28.10;;;6.50;;
28335;SDS011;15592;53.656;7.276;2024-02-21T01:13:53;25.17;;;7.35;;
28335;SDS011;15592;53.656;7.276;2024-02-21T01:16:19;27.25;;;6.40;;
28335;SDS011;15592;53.656;7.276;2024-02-21T01:18:45;25.35;;;7.32;;
28335;SDS011;15592;53.656;7.276;2024-02-21T01:21:11;16.33;;;6.38;;
28335;SDS011;15592;53.656;7.276;2024-02-21T01:23:37;27.17;;;6.65;;
28335;SDS011;15592;53.656;7.276;2024-02-21T01:26:03;20.15;;;6.53;;
28335;SDS011;15592;53.656;7.276;2024-02-21T01:28:30;28.33;;;6.93;;
28335;SDS011;15592;53.656;7.276;2024-02-21T01:30:56;22.33;;;6.40;;
28335;SDS011;15592;53.656;7.276;2024-02-21T01:33:22;27.42;;;7.10;;
28335;SDS011;15592;53.656;7.276;2024-02-21T01:35:48;24.13;;;7.95;;
28335;SDS011;15592;53.656;7.276;2024-02-21T01:38:15;31.30;;;7.93;;
28335;SDS011;15592;53.656;7.276;2024-02-21T01:40:41;21.13;;;6.93;;
28335;SDS011;15592;53.656;7.276;2024-02-21T01:43:17;36.97;;;8.98;;
28335;SDS011;15592;53.656;7.276;2024-02-21T01:45:44;29.45;;;8.48;;
28335;SDS011;15592;53.656;7.276;2024-02-21T01:48:11;21.00;;;7.70;;
28335;SDS011;15592;53.656;7.276;2024-02-21T01:50:38;26.50;;;8.02;;
28335;SDS011;15592;53.656;7.276;2024-02-21T01:53:04;27.58;;;9.07;;
28335;SDS011;15592;53.656;7.276;2024-02-21T01:55:31;24.70;;;8.45;;
28335;SDS011;15592;53.656;7.276;2024-02-21T01:57:57;30.83;;;8.75;;
28335;SDS011;15592;53.656;7.276;2024-02-21T02:00:23;28.27;;;8.55;;
28335;SDS011;15592;53.656;7.276;2024-02-21T02:02:49;30.55;;;8.52;;
28335;SDS011;15592;53.656;7.276;2024-02-21T02:05:15;28.40;;;8.25;;
28335;SDS011;15592;53.656;7.276;2024-02-21T02:07:43;24.42;;;8.63;;
28335;SDS011;15592;53.656;7.276;2024-02-21T02:10:09;27.92;;;8.48;;
28335;SDS011;15592;53.656;7.276;2024-02-21T02:12:35;28.92;;;8.00;;
28335;SDS011;15592;53.656;7.276;2024-02-21T02:15:02;24.63;;;8.55;;
28335;SDS011;15592;53.656;7.276;2024-02-21T02:17:31;34.42;;;9.40;;
28335;SDS011;15592;53.656;7.276;2024-02-21T02:19:57;17.65;;;6.70;;
28335;SDS011;15592;53.656;7.276;2024-02-21T02:22:26;41.28;;;9.20;;
28335;SDS011;15592;53.656;7.276;2024-02-21T02:24:53;29.80;;;8.23;;
28335;SDS011;15592;53.656;7.276;2024-02-21T02:27:20;26.90;;;7.32;;
28335;SDS011;15592;53.656;7.276;2024-02-21T02:29:48;22.98;;;7.80;;
28335;SDS011;15592;53.656;7.276;2024-02-21T02:32:14;23.35;;;7.63;;
28335;SDS011;15592;53.656;7.276;2024-02-21T02:34:40;30.45;;;7.68;;
28335;SDS011;15592;53.656;7.276;2024-02-21T02:37:06;31.17;;;7.97;;
28335;SDS011;15592;53.656;7.276;2024-02-21T02:39:32;28.05;;;7.13;;
28335;SDS011;15592;53.656;7.276;2024-02-21T02:41:58;28.17;;;7.10;;
28335;SDS011;15592;53.656;7.276;2024-02-21T02:44:24;18.70;;;6.90;;
28335;SDS011;15592;53.656;7.276;2024-02-21T02:46:49;28.17;;;6.32;;
28335;SDS011;15592;53.656;7.276;2024-02-21T02:49:15;30.50;;;7.40;;
28335;SDS011;15592;53.656;7.276;2024-02-21T02:51:42;26.33;;;7.35;;
28335;SDS011;15592;53.656;7.276;2024-02-21T02:54:11;24.05;;;6.68;;
28335;SDS011;15592;53.656;7.276;2024-02-21T02:56:37;22.67;;;6.57;;
28335;SDS011;15592;53.656;7.276;2024-02-21T02:59:03;22.98;;;7.60;;
28335;SDS011;15592;53.656;7.276;2024-02-21T03:01:29;25.50;;;7.20;;
28335;SDS011;15592;53.656;7.276;2024-02-21T03:03:59;20.85;;;7.32;;
28335;SDS011;15592;53.656;7.276;2024-02-21T03:06:25;36.95;;;7.85;;
28335;SDS011;15592;53.656;7.276;2024-02-21T03:08:51;30.00;;;8.02;;
28335;SDS011;15592;53.656;7.276;2024-02-21T03:11:19;29.75;;;8.10;;
28335;SDS011;15592;53.656;7.276;2024-02-21T03:13:46;26.60;;;7.45;;
28335;SDS011;15592;53.656;7.276;2024-02-21T03:16:12;32.40;;;8.32;;
28335;SDS011;15592;53.656;7.276;2024-02-21T03:18:38;34.47;;;8.80;;
28335;SDS011;15592;53.656;7.276;2024-02-21T03:21:04;26.60;;;8.00;;
28335;SDS011;15592;53.656;7.276;2024-02-21T03:23:30;24.42;;;7.72;;
28335;SDS011;15592;53.656;7.276;2024-02-21T03:25:56;27.70;;;8.68;;
28335;SDS011;15592;53.656;7.276;2024-02-21T03:28:22;37.28;;;9.27;;
28335;SDS011;15592;53.656;7.276;2024-02-21T03:30:48;37.67;;;8.43;;
28335;SDS011;15592;53.656;7.276;2024-02-21T03:33:14;30.13;;;7.40;;
28335;SDS011;15592;53.656;7.276;2024-02-21T03:35:40;26.73;;;7.88;;
28335;SDS011;15592;53.656;7.276;2024-02-21T03:38:06;38.78;;;8.57;;
28335;SDS011;15592;53.656;7.276;2024-02-21T03:40:32;29.10;;;8.45;;
28335;SDS011;15592;53.656;7.276;2024-02-21T03:42:58;36.78;;;8.20;;
28335;SDS011;15592;53.656;7.276;2024-02-21T03:45:23;29.45;;;8.52;;
28335;SDS011;15592;53.656;7.276;2024-02-21T03:47:49;28.15;;;8.15;;
28335;SDS011;15592;53.656;7.276;2024-02-21T03:50:16;28.58;;;7.00;;
28335;SDS011;15592;53.656;7.276;2024-02-21T03:52:42;28.25;;;7.07;;
28335;SDS011;15592;53.656;7.276;2024-02-21T03:55:08;33.55;;;7.03;;
28335;SDS011;15592;53.656;7.276;2024-02-21T03:57:34;31.75;;;7.32;;
28335;SDS011;15592;53.656;7.276;2024-02-21T04:00:00;33.72;;;7.20;;
28335;SDS011;15592;53.656;7.276;2024-02-21T04:02:26;33.75;;;8.07;;
28335;SDS011;15592;53.656;7.276;2024-02-21T04:04:52;30.65;;;6.55;;
28335;SDS011;15592;53.656;7.276;2024-02-21T04:07:18;35.25;;;7.18;;
28335;SDS011;15592;53.656;7.276;2024-02-21T04:09:44;23.05;;;6.38;;
28335;SDS011;15592;53.656;7.276;2024-02-21T04:12:10;36.33;;;6.75;;
28335;SDS011;15592;53.656;7.276;2024-02-21T04:14:36;32.42;;;7.07;;
28335;SDS011;15592;53.656;7.276;2024-02-21T04:17:02;28.52;;;6.10;;
28335;SDS011;15592;53.656;7.276;2024-02-21T04:19:30;36.60;;;7.55;;
28335;SDS011;15592;53.656;7.276;2024-02-21T04:21:56;24.20;;;6.22;;
28335;SDS011;15592;53.656;7.276;2024-02-21T04:24:22;29.13;;;6.43;;
28335;SDS011;15592;53.656;7.276;2024-02-21T04:26:48;29.73;;;6.40;;
28335;SDS011;15592;53.656;7.276;2024-02-21T04:29:14;31.52;;;8.95;;
28335;SDS011;15592;53.656;7.276;2024-02-21T04:31:40;31.58;;;7.88;;
28335;SDS011;15592;53.656;7.276;2024-02-21T04:34:07;28.45;;;6.70;;
28335;SDS011;15592;53.656;7.276;2024-02-21T04:36:32;31.05;;;7.43;;
28335;SDS011;15592;53.656;7.276;2024-02-21T04:38:58;31.10;;;5.82;;
28335;SDS011;15592;53.656;7.276;2024-02-21T04:41:24;32.13;;;7.43;;
28335;SDS011;15592;53.656;7.276;2024-02-21T04:43:50;29.27;;;6.50;;
28335;SDS011;15592;53.656;7.276;2024-02-21T04:46:16;29.80;;;6.50;;
28335;SDS011;15592;53.656;7.276;2024-02-21T04:48:42;29.73;;;6.68;;
28335;SDS011;15592;53.656;7.276;2024-02-21T04:51:08;33.80;;;6.97;;
28335;SDS011;15592;53.656;7.276;2024-02-21T04:53:34;28.70;;;7.10;;
28335;SDS011;15592;53.656;7.276;2024-02-21T04:56:00;37.58;;;6.97;;
28335;SDS011;15592;53.656;7.276;2024-02-21T04:58:26;33.90;;;6.72;;
28335;SDS011;15592;53.656;7.276;2024-02-21T05:00:52;37.47;;;7.00;;
28335;SDS011;15592;53.656;7.276;2024-02-21T05:03:19;31.45;;;6.80;;
28335;SDS011;15592;53.656;7.276;2024-02-21T05:05:45;33.15;;;6.72;;
28335;SDS011;15592;53.656;7.276;2024-02-21T05:08:11;34.78;;;9.00;;
28335;SDS011;15592;53.656;7.276;2024-02-21T05:10:37;29.42;;;8.13;;
28335;SDS011;15592;53.656;7.276;2024-02-21T05:13:04;31.60;;;7.30;;
28335;SDS011;15592;53.656;7.276;2024-02-21T05:15:30;35.35;;;8.02;;
28335;SDS011;15592;53.656;7.276;2024-02-21T05:17:56;26.20;;;7.47;;
28335;SDS011;15592;53.656;7.276;2024-02-21T05:20:22;29.80;;;8.70;;
28335;SDS011;15592;53.656;7.276;2024-02-21T05:22:48;30.27;;;8.32;;
28335;SDS011;15592;53.656;7.276;2024-02-21T05:25:14;29.55;;;8.20;;
28335;SDS011;15592;53.656;7.276;2024-02-21T05:27:40;32.17;;;7.68;;
28335;SDS011;15592;53.656;7.276;2024-02-21T05:30:06;29.95;;;7.95;;
28335;SDS011;15592;53.656;7.276;2024-02-21T05:32:32;29.67;;;7.75;;
28335;SDS011;15592;53.656;7.276;2024-02-21T05:34:58;42.25;;;9.27;;
28335;SDS011;15592;53.656;7.276;2024-02-21T05:37:24;33.50;;;8.57;;
28335;SDS011;15592;53.656;7.276;2024-02-21T05:39:50;27.35;;;8.40;;
28335;SDS011;15592;53.656;7.276;2024-02-21T05:42:16;35.47;;;8.90;;
28335;SDS011;15592;53.656;7.276;2024-02-21T05:44:42;29.10;;;7.35;;
28335;SDS011;15592;53.656;7.276;2024-02-21T05:47:08;29.17;;;7.32;;
28335;SDS011;15592;53.656;7.276;2024-02-21T05:49:35;29.58;;;7.60;;
28335;SDS011;15592;53.656;7.276;2024-02-21T05:52:01;22.95;;;7.85;;
28335;SDS011;15592;53.656;7.276;2024-02-21T05:54:27;23.92;;;7.43;;
28335;SDS011;15592;53.656;7.276;2024-02-21T05:56:53;40.05;;;9.30;;
28335;SDS011;15592;53.656;7.276;2024-02-21T05:59:19;29.23;;;7.57;;
28335;SDS011;15592;53.656;7.276;2024-02-21T06:01:45;37.78;;;8.50;;
28335;SDS011;15592;53.656;7.276;2024-02-21T06:04:21;38.60;;;9.48;;
28335;SDS011;15592;53.656;7.276;2024-02-21T06:06:47;29.65;;;7.68;;
28335;SDS011;15592;53.656;7.276;2024-02-21T06:09:13;31.17;;;7.55;;
28335;SDS011;15592;53.656;7.276;2024-02-21T06:11:39;39.42;;;9.75;;
28335;SDS011;15592;53.656;7.276;2024-02-21T06:14:05;35.05;;;8.15;;
28335;SDS011;15592;53.656;7.276;2024-02-21T06:16:31;34.33;;;8.43;;
28335;SDS011;15592;53.656;7.276;2024-02-21T06:18:57;32.72;;;7.88;;
28335;SDS011;15592;53.656;7.276;2024-02-21T06:21:23;28.17;;;7.05;;
28335;SDS011;15592;53.656;7.276;2024-02-21T06:23:49;32.80;;;8.20;;
28335;SDS011;15592;53.656;7.276;2024-02-21T06:26:14;31.15;;;8.18;;
28335;SDS011;15592;53.656;7.276;2024-02-21T06:28:40;23.13;;;7.95;;
28335;SDS011;15592;53.656;7.276;2024-02-21T06:31:07;28.98;;;7.60;;
28335;SDS011;15592;53.656;7.276;2024-02-21T06:33:33;20.15;;;6.72;;
28335;SDS011;15592;53.656;7.276;2024-02-21T06:35:59;18.73;;;5.82;;
28335;SDS011;15592;53.656;7.276;2024-02-21T06:38:25;18.92;;;5.90;;
28335;SDS011;15592;53.656;7.276;2024-02-21T06:40:51;19.92;;;6.65;;
28335;SDS011;15592;53.656;7.276;2024-02-21T06:43:19;28.65;;;6.90;;
28335;SDS011;15592;53.656;7.276;2024-02-21T06:45:45;26.17;;;6.72;;
28335;SDS011;15592;53.656;7.276;2024-02-21T06:48:19;22.60;;;6.03;;
28335;SDS011;15592;53.656;7.276;2024-02-21T06:50:45;17.98;;;6.05;;
28335;SDS011;15592;53.656;7.276;2024-02-21T06:53:11;22.98;;;6.47;;
28335;SDS011;15592;53.656;7.276;2024-02-21T06:55:37;21.80;;;6.00;;
28335;SDS011;15592;53.656;7.276;2024-02-21T06:58:03;21.92;;;6.03;;
28335;SDS011;15592;53.656;7.276;2024-02-21T07:00:29;16.23;;;5.50;;
28335;SDS011;15592;53.656;7.276;2024-02-21T07:02:55;19.02;;;5.70;;
28335;SDS011;15592;53.656;7.276;2024-02-21T07:05:21;15.95;;;5.32;;
28335;SDS011;15592;53.656;7.276;2024-02-21T07:07:47;20.42;;;5.55;;
28335;SDS011;15592;53.656;7.276;2024-02-21T07:10:13;20.17;;;5.82;;
28335;SDS011;15592;53.656;7.276;2024-02-21T07:12:39;23.88;;;6.43;;
28335;SDS011;15592;53.656;7.276;2024-02-21T07:15:08;21.65;;;6.85;;
28335;SDS011;15592;53.656;7.276;2024-02-21T07:17:34;26.25;;;6.05;;
28335;SDS011;15592;53.656;7.276;2024-02-21T07:20:00;27.55;;;6.70;;
28335;SDS011;15592;53.656;7.276;2024-02-21T07:22:26;24.15;;;7.28;;
28335;SDS011;15592;53.656;7.276;2024-02-21T07:24:52;19.48;;;5.88;;
28335;SDS011;15592;53.656;7.276;2024-02-21T07:27:18;23.73;;;6.30;;
28335;SDS011;15592;53.656;7.276;2024-02-21T07:29:44;20.30;;;6.03;;
28335;SDS011;15592;53.656;7.276;2024-02-21T07:32:12;21.20;;;6.28;;
28335;SDS011;15592;53.656;7.276;2024-02-21T07:34:38;20.67;;;5.43;;
28335;SDS011;15592;53.656;7.276;2024-02-21T07:37:04;20.90;;;6.53;;
28335;SDS011;15592;53.656;7.276;2024-02-21T07:39:30;22.70;;;7.05;;
28335;SDS011;15592;53.656;7.276;2024-02-21T07:41:56;24.23;;;6.53;;
28335;SDS011;15592;53.656;7.276;2024-02-21T07:44:22;44.97;;;9.25;;
28335;SDS011;15592;53.656;7.276;2024-02-21T07:46:48;38.60;;;9.13;;
28335;SDS011;15592;53.656;7.276;2024-02-21T07:49:14;31.23;;;10.00;;
28335;SDS011;15592;53.656;7.276;2024-02-21T07:51:40;42.20;;;10.70;;
28335;SDS011;15592;53.656;7.276;2024-02-21T07:54:07;38.85;;;10.85;;
28335;SDS011;15592;53.656;7.276;2024-02-21T07:56:33;37.75;;;11.75;;
28335;SDS011;15592;53.656;7.276;2024-02-21T07:58:59;51.33;;;13.32;;
28335;SDS011;15592;53.656;7.276;2024-02-21T08:01:25;41.10;;;12.60;;
28335;SDS011;15592;53.656;7.276;2024-02-21T08:03:51;58.63;;;15.20;;
28335;SDS011;15592;53.656;7.276;2024-02-21T08:06:17;42.20;;;14.88;;
28335;SDS011;15592;53.656;7.276;2024-02-21T08:08:43;71.07;;;18.52;;
28335;SDS011;15592;53.656;7.276;2024-02-21T08:11:10;59.42;;;17.45;;
28335;SDS011;15592;53.656;7.276;2024-02-21T08:13:36;50.47;;;18.95;;
28335;SDS011;15592;53.656;7.276;2024-02-21T08:16:02;61.25;;;19.38;;
28335;SDS011;15592;53.656;7.276;2024-02-21T08:18:28;54.13;;;19.55;;
28335;SDS011;15592;53.656;7.276;2024-02-21T08:20:54;57.97;;;19.25;;
28335;SDS011;15592;53.656;7.276;2024-02-21T08:23:22;65.45;;;19.27;;
28335;SDS011;15592;53.656;7.276;2024-02-21T08:25:49;56.13;;;18.40;;
28335;SDS011;15592;53.656;7.276;2024-02-21T08:28:15;56.25;;;19.52;;
28335;SDS011;15592;53.656;7.276;2024-02-21T08:30:41;68.05;;;20.60;;
28335;SDS011;15592;53.656;7.276;2024-02-21T08:33:13;58.58;;;21.15;;
28335;SDS011;15592;53.656;7.276;2024-02-21T08:35:39;70.43;;;22.15;;
28335;SDS011;15592;53.656;7.276;2024-02-21T08:38:05;58.83;;;20.77;;
28335;SDS011;15592;53.656;7.276;2024-02-21T08:40:30;67.88;;;22.67;;
28335;SDS011;15592;53.656;7.276;2024-02-21T08:42:56;58.13;;;21.30;;
28335;SDS011;15592;53.656;7.276;2024-02-21T08:45:22;65.35;;;22.48;;
28335;SDS011;15592;53.656;7.276;2024-02-21T08:47:48;52.38;;;20.75;;
28335;SDS011;15592;53.656;7.276;2024-02-21T08:50:14;62.75;;;21.23;;
28335;SDS011;15592;53.656;7.276;2024-02-21T08:52:40;69.10;;;19.48;;
28335;SDS011;15592;53.656;7.276;2024-02-21T08:55:07;67.32;;;19.45;;
28335;SDS011;15592;53.656;7.276;2024-02-21T08:57:33;67.53;;;18.17;;
28335;SDS011;15592;53.656;7.276;2024-02-21T09:00:03;70.20;;;18.75;;
28335;SDS011;15592;53.656;7.276;2024-02-21T09:02:34;56.00;;;18.60;;
28335;SDS011;15592;53.656;7.276;2024-02-21T09:05:00;62.17;;;17.77;;
28335;SDS011;15592;53.656;7.276;2024-02-21T09:07:26;48.47;;;17.35;;
28335;SDS011;15592;53.656;7.276;2024-02-21T09:09:52;47.05;;;17.13;;
28335;SDS011;15592;53.656;7.276;2024-02-21T09:12:18;61.25;;;18.40;;
28335;SDS011;15592;53.656;7.276;2024-02-21T09:14:44;41.85;;;16.42;;
28335;SDS011;15592;53.656;7.276;2024-02-21T09:17:13;55.03;;;17.83;;
28335;SDS011;15592;53.656;7.276;2024-02-21T09:19:42;47.60;;;18.30;;
28335;SDS011;15592;53.656;7.276;2024-02-21T09:22:08;44.72;;;16.92;;
28335;SDS011;15592;53.656;7.276;2024-02-21T09:24:34;52.83;;;18.90;;
28335;SDS011;15592;53.656;7.276;2024-02-21T09:27:00;52.88;;;17.52;;
28335;SDS011;15592;53.656;7.276;2024-02-21T09:29:26;51.75;;;19.20;;
28335;SDS011;15592;53.656;7.276;2024-02-21T09:31:52;69.63;;;19.80;;
28335;SDS011;15592;53.656;7.276;2024-02-21T09:34:18;53.38;;;18.23;;
28335;SDS011;15592;53.656;7.276;2024-02-21T09:36:44;46.72;;;17.33;;
28335;SDS011;15592;53.656;7.276;2024-02-21T09:39:10;56.97;;;17.98;;
28335;SDS011;15592;53.656;7.276;2024-02-21T09:41:45;42.90;;;14.85;;
28335;SDS011;15592;53.656;7.276;2024-02-21T09:44:13;51.10;;;15.77;;
28335;SDS011;15592;53.656;7.276;2024-02-21T09:47:02;49.65;;;16.33;;
28335;SDS011;15592;53.656;7.276;2024-02-21T09:52:57;45.65;;;14.63;;
28335;SDS011;15592;53.656;7.276;2024-02-21T09:55:24;39.63;;;13.50;;
28335;SDS011;15592;53.656;7.276;2024-02-21T09:57:52;28.92;;;11.38;;
28335;SDS011;15592;53.656;7.276;2024-02-21T10:00:19;38.35;;;11.75;;
28335;SDS011;15592;53.656;7.276;2024-02-21T10:02:49;34.42;;;11.00;;
28335;SDS011;15592;53.656;7.276;2024-02-21T10:05:16;29.90;;;11.17;;
28335;SDS011;15592;53.656;7.276;2024-02-21T10:07:45;34.10;;;11.07;;
28335;SDS011;15592;53.656;7.276;2024-02-21T10:10:11;37.92;;;12.27;;
28335;SDS011;15592;53.656;7.276;2024-02-21T10:12:47;39.65;;;11.88;;
28335;SDS011;15592;53.656;7.276;2024-02-21T10:15:13;31.58;;;11.90;;
28335;SDS011;15592;53.656;7.276;2024-02-21T10:17:39;39.63;;;12.27;;
28335;SDS011;15592;53.656;7.276;2024-02-21T10:20:08;40.53;;;11.60;;
28335;SDS011;15592;53.656;7.276;2024-02-21T10:22:35;33.23;;;13.13;;
28335;SDS011;15592;53.656;7.276;2024-02-21T10:25:11;40.65;;;12.25;;
28335;SDS011;15592;53.656;7.276;2024-02-21T10:27:38;33.83;;;12.40;;
28335;SDS011;15592;53.656;7.276;2024-02-21T10:30:07;41.40;;;14.10;;
28335;SDS011;15592;53.656;7.276;2024-02-21T10:32:33;51.60;;;15.25;;
28335;SDS011;15592;53.656;7.276;2024-02-21T10:35:02;35.30;;;15.80;;
28335;SDS011;15592;53.656;7.276;2024-02-21T10:39:55;44.78;;;17.67;;
28335;SDS011;15592;53.656;7.276;2024-02-21T10:42:22;51.53;;;18.90;;
28335;SDS011;15592;53.656;7.276;2024-02-21T10:44:50;41.20;;;18.30;;
28335;SDS011;15592;53.656;7.276;2024-02-21T10:47:17;46.30;;;19.38;;
28335;SDS011;15592;53.656;7.276;2024-02-21T10:49:46;51.37;;;18.90;;
28335;SDS011;15592;53.656;7.276;2024-02-21T10:52:31;59.15;;;20.65;;
28335;SDS011;15592;53.656;7.276;2024-02-21T10:55:04;39.72;;;20.08;;
28335;SDS011;15592;53.656;7.276;2024-02-21T10:57:36;45.45;;;20.40;;
28335;SDS011;15592;53.656;7.276;2024-02-21T11:00:03;49.28;;;20.00;;
28335;SDS011;15592;53.656;7.276;2024-02-21T11:02:32;43.20;;;20.58;;
28335;SDS011;15592;53.656;7.276;2024-02-21T11:04:59;47.85;;;20.30;;
28335;SDS011;15592;53.656;7.276;2024-02-21T11:07:25;49.28;;;19.80;;
28335;SDS011;15592;53.656;7.276;2024-02-21T11:09:52;43.38;;;19.65;;
28335;SDS011;15592;53.656;7.276;2024-02-21T11:12:20;45.67;;;20.48;;
28335;SDS011;15592;53.656;7.276;2024-02-21T11:14:47;39.42;;;20.08;;
28335;SDS011;15592;53.656;7.276;2024-02-21T11:17:16;45.80;;;19.88;;
28335;SDS011;15592;53.656;7.276;2024-02-21T11:19:42;39.00;;;19.90;;
28335;SDS011;15592;53.656;7.276;2024-02-21T11:22:18;44.55;;;20.05;;
28335;SDS011;15592;53.656;7.276;2024-02-21T11:24:45;42.45;;;18.90;;
28335;SDS011;15592;53.656;7.276;2024-02-21T11:27:14;46.40;;;21.30;;
28335;SDS011;15592;53.656;7.276;2024-02-21T11:32:09;44.95;;;21.88;;
28335;SDS011;15592;53.656;7.276;2024-02-21T11:34:35;47.60;;;22.00;;
28335;SDS011;15592;53.656;7.276;2024-02-21T11:37:01;49.28;;;23.85;;
28335;SDS011;15592;53.656;7.276;2024-02-21T11:39:27;47.60;;;22.80;;
28335;SDS011;15592;53.656;7.276;2024-02-21T11:42:00;53.10;;;25.48;;
28335;SDS011;15592;53.656;7.276;2024-02-21T11:44:26;43.88;;;23.05;;
28335;SDS011;15592;53.656;7.276;2024-02-21T11:46:52;48.28;;;24.35;;
28335;SDS011;15592;53.656;7.276;2024-02-21T11:49:18;51.85;;;25.33;;
28335;SDS011;15592;53.656;7.276;2024-02-21T11:51:44;50.58;;;26.02;;
28335;SDS011;15592;53.656;7.276;2024-02-21T11:54:11;52.50;;;25.98;;
28335;SDS011;15592;53.656;7.276;2024-02-21T11:56:41;54.50;;;26.48;;
28335;SDS011;15592;53.656;7.276;2024-02-21T11:59:08;50.15;;;25.13;;
28335;SDS011;15592;53.656;7.276;2024-02-21T12:01:34;58.92;;;25.85;;
28335;SDS011;15592;53.656;7.276;2024-02-21T12:04:00;44.17;;;25.08;;
28335;SDS011;15592;53.656;7.276;2024-02-21T12:06:26;50.08;;;27.98;;
28335;SDS011;15592;53.656;7.276;2024-02-21T12:08:52;51.00;;;25.83;;
28335;SDS011;15592;53.656;7.276;2024-02-21T12:11:23;50.58;;;25.20;;
28335;SDS011;15592;53.656;7.276;2024-02-21T12:13:59;50.55;;;25.38;;
28335;SDS011;15592;53.656;7.276;2024-02-21T12:16:27;46.20;;;25.08;;
28335;SDS011;15592;53.656;7.276;2024-02-21T12:18:55;56.47;;;24.80;;
28335;SDS011;15592;53.656;7.276;2024-02-21T12:21:31;45.85;;;25.08;;
28335;SDS011;15592;53.656;7.276;2024-02-21T12:24:00;42.83;;;24.23;;
28335;SDS011;15592;53.656;7.276;2024-02-21T12:26:36;47.20;;;24.13;;
28335;SDS011;15592;53.656;7.276;2024-02-21T12:29:02;48.53;;;24.27;;
28335;SDS011;15592;53.656;7.276;2024-02-21T12:31:28;45.15;;;22.95;;
28335;SDS011;15592;53.656;7.276;2024-02-21T12:33:54;47.92;;;25.33;;
28335;SDS011;15592;53.656;7.276;2024-02-21T12:36:20;40.90;;;23.38;;
28335;SDS011;15592;53.656;7.276;2024-02-21T12:38:46;43.42;;;21.65;;
28335;SDS011;15592;53.656;7.276;2024-02-21T12:41:14;39.67;;;23.10;;
28335;SDS011;15592;53.656;7.276;2024-02-21T12:43:40;43.13;;;22.98;;
28335;SDS011;15592;53.656;7.276;2024-02-21T12:46:06;38.45;;;21.45;;
28335;SDS011;15592;53.656;7.276;2024-02-21T12:48:32;37.50;;;22.27;;
28335;SDS011;15592;53.656;7.276;2024-02-21T12:50:58;38.42;;;21.13;;
28335;SDS011;15592;53.656;7.276;2024-02-21T12:53:25;36.92;;;21.42;;
28335;SDS011;15592;53.656;7.276;2024-02-21T12:55:51;43.20;;;23.02;;
28335;SDS011;15592;53.656;7.276;2024-02-21T12:58:17;35.03;;;21.92;;
28335;SDS011;15592;53.656;7.276;2024-02-21T13:00:43;41.63;;;22.55;;
28335;SDS011;15592;53.656;7.276;2024-02-21T13:03:09;40.58;;;21.27;;
28335;SDS011;15592;53.656;7.276;2024-02-21T13:05:36;39.90;;;21.85;;
28335;SDS011;15592;53.656;7.276;2024-02-21T13:08:02;37.55;;;20.23;;
28335;SDS011;15592;53.656;7.276;2024-02-21T13:10:28;38.95;;;19.73;;
28335;SDS011;15592;53.656;7.276;2024-02-21T13:12:54;35.95;;;18.50;;
28335;SDS011;15592;53.656;7.276;2024-02-21T13:15:20;35.22;;;19.67;;
28335;SDS011;15592;53.656;7.276;2024-02-21T13:17:46;39.63;;;18.42;;
28335;SDS011;15592;53.656;7.276;2024-02-21T13:20:12;32.53;;;18.33;;
28335;SDS011;15592;53.656;7.276;2024-02-21T13:22:38;35.85;;;17.88;;
28335;SDS011;15592;53.656;7.276;2024-02-21T13:25:04;33.47;;;16.90;;
28335;SDS011;15592;53.656;7.276;2024-02-21T13:27:32;37.65;;;16.92;;
28335;SDS011;15592;53.656;7.276;2024-02-21T13:29:58;32.72;;;17.05;;
28335;SDS011;15592;53.656;7.276;2024-02-21T13:32:26;25.08;;;15.70;;
28335;SDS011;15592;53.656;7.276;2024-02-21T13:34:52;30.05;;;15.45;;
28335;SDS011;15592;53.656;7.276;2024-02-21T13:37:18;30.63;;;16.02;;
28335;SDS011;15592;53.656;7.276;2024-02-21T13:39:44;36.08;;;16.48;;
28335;SDS011;15592;53.656;7.276;2024-02-21T13:42:11;33.25;;;16.92;;
28335;SDS011;15592;53.656;7.276;2024-02-21T13:44:37;29.02;;;15.05;;
28335;SDS011;15592;53.656;7.276;2024-02-21T13:47:03;24.90;;;14.30;;
28335;SDS011;15592;53.656;7.276;2024-02-21T13:49:30;27.48;;;14.80;;
28335;SDS011;15592;53.656;7.276;2024-02-21T13:51:56;26.80;;;14.25;;
28335;SDS011;15592;53.656;7.276;2024-02-21T13:54:22;27.42;;;14.63;;
28335;SDS011;15592;53.656;7.276;2024-02-21T13:56:49;24.48;;;14.05;;
28335;SDS011;15592;53.656;7.276;2024-02-21T13:59:15;25.17;;;14.00;;
28335;SDS011;15592;53.656;7.276;2024-02-21T14:01:41;26.38;;;14.02;;
28335;SDS011;15592;53.656;7.276;2024-02-21T14:04:07;24.80;;;12.88;;
28335;SDS011;15592;53.656;7.276;2024-02-21T14:06:33;25.27;;;14.15;;
28335;SDS011;15592;53.656;7.276;2024-02-21T14:09:00;22.80;;;13.23;;
28335;SDS011;15592;53.656;7.276;2024-02-21T14:11:26;26.13;;;12.20;;
28335;SDS011;15592;53.656;7.276;2024-02-21T14:13:52;25.05;;;12.65;;
28335;SDS011;15592;53.656;7.276;2024-02-21T14:16:22;20.52;;;11.90;;
28335;SDS011;15592;53.656;7.276;2024-02-21T14:18:48;22.95;;;13.20;;
28335;SDS011;15592;53.656;7.276;2024-02-21T14:21:14;23.45;;;12.73;;
28335;SDS011;15592;53.656;7.276;2024-02-21T14:23:40;20.50;;;13.35;;
28335;SDS011;15592;53.656;7.276;2024-02-21T14:26:06;27.00;;;12.65;;
28335;SDS011;15592;53.656;7.276;2024-02-21T14:28:32;22.20;;;12.45;;
28335;SDS011;15592;53.656;7.276;2024-02-21T14:31:01;21.10;;;12.70;;
28335;SDS011;15592;53.656;7.276;2024-02-21T14:33:29;23.27;;;11.73;;